createdAt,value
2023-04-23T00:00:54.936Z,11.76
2023-04-23T00:03:27.115Z,11.76
2023-04-23T00:05:58.300Z,11.77
2023-04-23T00:08:27.716Z,11.80
2023-04-23T00:10:56.111Z,11.81
2023-04-23T00:13:24.305Z,11.69
2023-04-23T00:15:52.349Z,11.75
2023-04-23T00:18:20.655Z,11.81
2023-04-23T00:20:50.052Z,11.88
2023-04-23T00:23:17.810Z,11.91
2023-04-23T00:25:45.696Z,11.88
2023-04-23T00:28:13.534Z,11.60
2023-04-23T00:30:42.466Z,11.47
2023-04-23T00:33:10.490Z,11.44
2023-04-23T00:35:39.145Z,11.36
2023-04-23T00:38:08.339Z,11.36
2023-04-23T00:40:37.095Z,11.42
2023-04-23T00:43:05.686Z,11.38
2023-04-23T00:45:33.533Z,11.42
2023-04-23T00:48:01.597Z,11.45
2023-04-23T00:50:29.418Z,11.47
2023-04-23T00:52:57.271Z,11.43
2023-04-23T00:55:26.810Z,11.29
2023-04-23T00:57:55.190Z,11.33
2023-04-23T01:00:23.401Z,11.32
2023-04-23T01:02:53.186Z,11.36
2023-04-23T01:05:24.408Z,11.26
2023-04-23T01:07:52.642Z,11.23
2023-04-23T01:10:21.387Z,11.19
2023-04-23T01:12:51.564Z,11.20
2023-04-23T01:15:19.420Z,11.20
2023-04-23T01:17:47.524Z,11.19
2023-04-23T01:20:16.926Z,11.21
2023-04-23T01:22:46.130Z,11.27
2023-04-23T01:25:14.143Z,11.28
2023-04-23T01:27:42.351Z,11.27
2023-04-23T01:30:11.014Z,11.26
2023-04-23T01:32:40.362Z,11.24
2023-04-23T01:35:13.050Z,11.16
2023-04-23T01:37:41.009Z,11.12
2023-04-23T01:40:11.184Z,11.01
2023-04-23T01:42:39.698Z,11.01
2023-04-23T01:45:09.043Z,11.01
2023-04-23T01:47:37.557Z,10.84
2023-04-23T01:50:06.284Z,10.72
2023-04-23T01:52:34.083Z,10.80
2023-04-23T01:55:02.306Z,10.80
2023-04-23T01:57:31.609Z,10.63
2023-04-23T02:00:08.120Z,10.59
2023-04-23T02:02:41.289Z,10.70
2023-04-23T02:05:12.520Z,10.64
2023-04-23T02:07:40.942Z,10.60
2023-04-23T02:10:10.142Z,10.58
2023-04-23T02:12:39.770Z,10.51
2023-04-23T02:15:09.382Z,10.50
2023-04-23T02:17:37.550Z,10.50
2023-04-23T02:20:06.469Z,10.48
2023-04-23T02:22:34.652Z,10.50
2023-04-23T02:25:02.516Z,10.45
2023-04-23T02:27:30.342Z,10.43
2023-04-23T02:29:59.970Z,10.40
2023-04-23T02:32:28.075Z,10.35
2023-04-23T02:34:56.228Z,10.33
2023-04-23T02:37:24.172Z,10.24
2023-04-23T02:39:52.213Z,10.27
2023-04-23T02:42:20.052Z,10.27
2023-04-23T02:44:48.473Z,10.24
2023-04-23T02:47:17.717Z,10.16
2023-04-23T02:49:45.557Z,10.22
2023-04-23T02:52:13.457Z,10.20
2023-04-23T02:54:41.700Z,10.14
2023-04-23T02:57:09.793Z,10.09
2023-04-23T02:59:38.318Z,10.07
2023-04-23T03:02:06.345Z,10.05
2023-04-23T03:04:35.816Z,10.07
2023-04-23T03:07:03.649Z,10.03
2023-04-23T03:09:33.643Z,9.99
2023-04-23T03:12:02.318Z,9.96
2023-04-23T03:14:30.305Z,9.94
2023-04-23T03:16:58.227Z,9.86
2023-04-23T03:19:26.437Z,9.84
2023-04-23T03:21:55.624Z,9.91
2023-04-23T03:24:23.692Z,9.87
2023-04-23T03:26:51.600Z,9.92
2023-04-23T03:29:19.421Z,9.79
2023-04-23T03:31:47.346Z,9.80
2023-04-23T03:34:15.929Z,9.88
2023-04-23T03:36:46.408Z,9.90
2023-04-23T03:39:16.043Z,9.86
2023-04-23T03:41:50.610Z,9.89
2023-04-23T03:44:21.634Z,9.87
2023-04-23T03:46:52.212Z,9.87
2023-04-23T03:49:21.136Z,9.91
2023-04-23T03:51:48.932Z,9.92
2023-04-23T03:54:18.616Z,9.85
2023-04-23T03:57:02.509Z,9.84
2023-04-23T03:59:34.975Z,9.89
2023-04-23T04:02:04.387Z,9.89
2023-04-23T04:04:32.697Z,9.91
2023-04-23T04:07:01.110Z,9.95
2023-04-23T04:09:30.697Z,9.90
2023-04-23T04:12:02.713Z,9.94
2023-04-23T04:14:31.060Z,9.94
2023-04-23T04:16:59.038Z,9.97
2023-04-23T04:19:26.941Z,9.95
2023-04-23T04:21:54.752Z,9.97
2023-04-23T04:24:26.257Z,9.99
2023-04-23T04:26:55.960Z,9.98
2023-04-23T04:29:23.861Z,10.01
2023-04-23T04:31:52.055Z,9.99
2023-04-23T04:34:20.235Z,10.03
2023-04-23T04:36:48.099Z,10.05
2023-04-23T04:39:15.991Z,10.03
2023-04-23T04:41:43.791Z,10.06
2023-04-23T04:44:14.414Z,10.06
2023-04-23T04:46:42.920Z,10.11
2023-04-23T04:49:11.661Z,10.12
2023-04-23T04:51:40.883Z,10.11
2023-04-23T04:54:09.583Z,10.14
2023-04-23T04:56:37.462Z,10.22
2023-04-23T04:59:05.348Z,10.24
2023-04-23T05:01:34.981Z,10.25
2023-04-23T05:04:03.242Z,10.27
2023-04-23T05:06:31.258Z,10.33
2023-04-23T05:08:59.152Z,10.40
2023-04-23T05:11:27.079Z,10.51
2023-04-23T05:13:54.920Z,10.76
2023-04-23T05:16:22.783Z,10.99
2023-04-23T05:18:52.106Z,10.96
2023-04-23T05:21:20.532Z,10.96
2023-04-23T05:23:49.415Z,11.00
2023-04-23T05:26:18.170Z,11.09
2023-04-23T05:28:46.166Z,11.14
2023-04-23T05:31:14.176Z,11.23
2023-04-23T05:33:50.075Z,11.19
2023-04-23T05:36:20.272Z,11.28
2023-04-23T05:38:48.193Z,11.34
2023-04-23T05:41:16.570Z,11.36
2023-04-23T05:43:44.371Z,11.49
2023-04-23T05:46:12.215Z,11.69
2023-04-23T05:48:39.998Z,11.98
2023-04-23T05:51:07.898Z,12.21
2023-04-23T05:53:37.055Z,12.33
2023-04-23T05:56:05.356Z,12.55
2023-04-23T05:58:33.332Z,12.47
2023-04-23T06:01:01.215Z,12.36
2023-04-23T06:03:30.363Z,12.38
2023-04-23T06:05:58.501Z,12.53
2023-04-23T06:08:26.352Z,12.54
2023-04-23T06:10:56.195Z,12.58
2023-04-23T06:13:24.109Z,12.48
2023-04-23T06:15:52.457Z,12.48
2023-04-23T06:18:20.342Z,12.56
2023-04-23T06:20:48.821Z,12.47
2023-04-23T06:23:16.725Z,12.38
2023-04-23T06:25:44.627Z,12.33
2023-04-23T06:28:13.902Z,12.34
2023-04-23T06:31:00.399Z,12.46
2023-04-23T06:33:29.211Z,12.43
2023-04-23T06:35:57.256Z,12.35
2023-04-23T06:38:25.221Z,12.45
2023-04-23T06:40:53.196Z,12.54
2023-04-23T06:43:22.681Z,12.57
2023-04-23T06:46:09.553Z,12.66
2023-04-23T06:48:37.650Z,12.65
2023-04-23T06:51:06.031Z,12.73
2023-04-23T06:53:34.063Z,12.75
2023-04-23T06:56:01.945Z,12.78
2023-04-23T06:58:32.301Z,12.71
2023-04-23T07:01:04.187Z,12.78
2023-04-23T07:03:34.441Z,12.86
2023-04-23T07:06:02.257Z,12.99
2023-04-23T07:08:30.105Z,13.08
2023-04-23T07:10:58.045Z,13.09
2023-04-23T07:13:25.900Z,13.30
2023-04-23T07:15:55.100Z,13.45
2023-04-23T07:18:22.954Z,13.69
2023-04-23T07:20:51.044Z,13.60
2023-04-23T07:23:18.922Z,13.72
2023-04-23T07:25:46.792Z,13.76
2023-04-23T07:28:14.675Z,14.50
2023-04-23T07:30:42.524Z,15.13
2023-04-23T07:33:11.749Z,15.47
2023-04-23T07:35:39.635Z,17.40
2023-04-23T07:38:07.680Z,17.74
2023-04-23T07:40:36.935Z,18.31
2023-04-23T07:43:04.906Z,18.88
2023-04-23T07:45:33.111Z,18.77
2023-04-23T07:48:02.257Z,19.39
2023-04-23T07:50:32.054Z,19.18
2023-04-23T07:52:59.871Z,18.48
2023-04-23T07:55:27.760Z,18.10
2023-04-23T07:57:55.595Z,17.67
2023-04-23T08:00:23.551Z,16.88
2023-04-23T08:02:51.813Z,16.88
2023-04-23T08:05:19.786Z,17.12
2023-04-23T08:07:49.043Z,17.41
2023-04-23T08:10:16.866Z,17.12
2023-04-23T08:12:45.200Z,16.94
2023-04-23T08:15:13.415Z,17.81
2023-04-23T08:17:44.781Z,17.76
2023-04-23T08:20:12.781Z,18.20
2023-04-23T08:22:40.762Z,17.46
2023-04-23T08:25:11.112Z,16.59
2023-04-23T08:27:38.980Z,16.90
2023-04-23T08:30:08.660Z,17.19
2023-04-23T08:32:36.532Z,17.11
2023-04-23T08:35:04.877Z,17.80
2023-04-23T08:37:32.811Z,17.48
2023-04-23T08:40:02.161Z,17.45
2023-04-23T08:42:42.810Z,17.74
2023-04-23T08:45:11.709Z,17.71
2023-04-23T08:47:43.133Z,17.69
2023-04-23T08:50:12.726Z,17.38
2023-04-23T08:52:43.285Z,17.18
2023-04-23T08:55:11.724Z,17.46
2023-04-23T08:57:42.802Z,18.39
2023-04-23T09:00:12.270Z,18.92
2023-04-23T09:02:42.485Z,19.50
2023-04-23T09:05:11.286Z,20.38
2023-04-23T09:07:39.301Z,20.37
2023-04-23T09:10:09.302Z,20.01
2023-04-23T09:12:39.022Z,19.92
2023-04-23T09:15:11.040Z,20.37
2023-04-23T09:17:41.033Z,19.86
2023-04-23T09:20:10.403Z,19.11
2023-04-23T09:22:46.011Z,18.65
2023-04-23T09:25:16.276Z,18.34
2023-04-23T09:27:45.065Z,18.85
2023-04-23T09:30:15.727Z,18.92
2023-04-23T09:32:46.004Z,18.99
2023-04-23T09:35:16.643Z,20.54
2023-04-23T09:37:48.370Z,19.43
2023-04-23T09:40:17.940Z,19.61
2023-04-23T09:42:49.727Z,20.78
2023-04-23T09:45:19.398Z,21.09
2023-04-23T09:47:51.728Z,21.43
2023-04-23T09:50:19.886Z,20.64
2023-04-23T09:52:56.127Z,21.33
2023-04-23T09:55:30.672Z,20.47
2023-04-23T09:57:59.362Z,20.88
2023-04-23T10:00:34.414Z,20.09
2023-04-23T10:03:02.857Z,19.92
2023-04-23T10:05:37.225Z,19.41
2023-04-23T10:08:19.579Z,19.86
2023-04-23T10:13:21.377Z,20.44
2023-04-23T10:15:51.146Z,19.34
2023-04-23T10:18:21.101Z,19.30
2023-04-23T10:20:50.923Z,18.92
2023-04-23T10:23:23.172Z,18.86
2023-04-23T10:25:52.013Z,19.72
2023-04-23T10:28:29.095Z,20.03
2023-04-23T10:30:58.435Z,19.86
2023-04-23T10:33:31.999Z,19.99
2023-04-23T10:36:06.201Z,19.44
2023-04-23T10:38:34.955Z,18.43
2023-04-23T10:41:04.248Z,17.88
2023-04-23T10:43:32.278Z,18.07
2023-04-23T10:46:02.230Z,17.62
2023-04-23T10:48:30.408Z,17.93
2023-04-23T10:51:14.562Z,18.01
2023-04-23T10:53:47.910Z,17.57
2023-04-23T10:56:16.765Z,17.83
2023-04-23T10:58:50.558Z,17.85
2023-04-23T11:01:22.387Z,18.20
2023-04-23T11:03:53.167Z,18.08
2023-04-23T11:06:43.386Z,18.35
2023-04-23T11:09:31.513Z,18.46
2023-04-23T11:12:01.594Z,18.34
2023-04-23T11:14:37.224Z,19.10
2023-04-23T11:17:07.461Z,18.81
2023-04-23T11:19:39.352Z,18.76
2023-04-23T11:22:08.765Z,19.22
2023-04-23T11:24:42.094Z,19.32
2023-04-23T11:27:11.712Z,19.50
2023-04-23T11:29:41.243Z,19.59
2023-04-23T11:32:13.047Z,19.21
2023-04-23T11:34:43.541Z,19.21
2023-04-23T11:37:12.465Z,19.72
2023-04-23T11:39:42.063Z,19.57
2023-04-23T11:42:11.325Z,19.35
2023-04-23T11:44:40.315Z,19.53
2023-04-23T11:47:11.294Z,19.81
2023-04-23T11:49:39.601Z,20.82
2023-04-23T11:52:08.130Z,21.08
2023-04-23T11:54:36.485Z,21.14
2023-04-23T11:57:05.928Z,21.65
2023-04-23T11:59:33.877Z,21.92
2023-04-23T12:02:01.948Z,22.17
2023-04-23T12:04:33.096Z,23.45
2023-04-23T12:07:03.102Z,22.12
2023-04-23T12:09:36.656Z,22.52
2023-04-23T12:12:04.671Z,21.41
2023-04-23T12:14:33.443Z,21.12
2023-04-23T12:17:11.926Z,22.13
2023-04-23T12:19:44.829Z,22.79
2023-04-23T12:22:12.994Z,23.27
2023-04-23T12:24:48.718Z,22.26
2023-04-23T12:27:20.086Z,21.92
2023-04-23T12:29:48.413Z,22.34
2023-04-23T12:32:16.640Z,22.83
2023-04-23T12:34:54.251Z,23.34
2023-04-23T12:37:25.362Z,22.26
2023-04-23T12:39:55.434Z,22.26
2023-04-23T12:42:23.671Z,21.42
2023-04-23T12:44:52.327Z,22.06
2023-04-23T12:47:20.432Z,21.45
2023-04-23T12:49:53.333Z,21.63
2023-04-23T12:52:23.104Z,21.39
2023-04-23T12:54:52.701Z,21.84
2023-04-23T12:57:23.133Z,21.53
2023-04-23T12:59:51.544Z,20.40
2023-04-23T13:02:19.617Z,21.17
2023-04-23T13:04:47.722Z,20.59
2023-04-23T13:07:15.664Z,20.51
2023-04-23T13:09:45.171Z,20.47
2023-04-23T13:12:13.292Z,20.74
2023-04-23T13:14:41.456Z,20.98
2023-04-23T13:17:09.441Z,20.44
2023-04-23T13:19:39.730Z,20.45
2023-04-23T13:22:07.992Z,20.65
2023-04-23T13:24:36.075Z,20.06
2023-04-23T13:27:05.801Z,20.71
2023-04-23T13:29:34.109Z,20.29
2023-04-23T13:32:02.164Z,20.13
2023-04-23T13:34:30.838Z,19.26
2023-04-23T13:37:00.305Z,19.00
2023-04-23T13:39:28.109Z,18.80
2023-04-23T13:42:08.803Z,19.24
2023-04-23T13:44:39.058Z,19.04
2023-04-23T13:47:06.988Z,19.24
2023-04-23T13:49:34.905Z,18.87
2023-04-23T13:52:06.817Z,18.57
2023-04-23T13:54:35.511Z,18.03
2023-04-23T13:57:03.704Z,17.80
2023-04-23T13:59:31.582Z,17.34
2023-04-23T14:02:00.859Z,17.73
2023-04-23T14:04:28.872Z,17.76
2023-04-23T14:06:56.780Z,17.85
2023-04-23T14:09:25.161Z,18.00
2023-04-23T14:11:53.302Z,17.84
2023-04-23T14:14:21.185Z,17.71
2023-04-23T14:16:49.054Z,17.39
2023-04-23T14:19:19.416Z,17.54
2023-04-23T14:21:47.341Z,17.75
2023-04-23T14:24:23.172Z,17.40
2023-04-23T14:26:51.494Z,17.31
2023-04-23T14:29:24.231Z,17.21
2023-04-23T14:31:52.273Z,17.15
2023-04-23T14:34:21.541Z,17.06
2023-04-23T14:36:49.959Z,17.12
2023-04-23T14:39:17.905Z,17.02
2023-04-23T14:41:45.844Z,16.86
2023-04-23T14:44:13.732Z,17.01
2023-04-23T14:46:41.613Z,16.96
2023-04-23T14:49:09.727Z,17.17
2023-04-23T14:51:39.235Z,17.10
2023-04-23T14:54:07.229Z,17.19
2023-04-23T14:56:35.068Z,17.22
2023-04-23T14:59:03.078Z,17.28
2023-04-23T15:01:31.465Z,17.29
2023-04-23T15:03:59.701Z,17.22
2023-04-23T15:06:27.992Z,17.04
2023-04-23T15:08:57.356Z,16.80
2023-04-23T15:11:25.604Z,16.78
2023-04-23T15:13:58.373Z,17.01
2023-04-23T15:16:47.582Z,17.19
2023-04-23T15:19:18.054Z,17.02
2023-04-23T15:21:46.699Z,17.04
2023-04-23T15:24:16.601Z,17.00
2023-04-23T15:26:45.852Z,16.94
2023-04-23T15:29:14.203Z,16.86
2023-04-23T15:31:42.810Z,16.75
2023-04-23T15:34:12.151Z,16.73
2023-04-23T15:36:40.407Z,16.70
2023-04-23T15:39:09.758Z,16.65
2023-04-23T15:41:41.017Z,16.66
2023-04-23T15:44:12.117Z,16.78
2023-04-23T15:46:40.381Z,16.66
2023-04-23T15:49:08.322Z,16.57
2023-04-23T15:51:36.530Z,16.35
2023-04-23T15:54:07.976Z,16.45
2023-04-23T15:56:36.570Z,16.43
2023-04-23T15:59:06.327Z,16.33
2023-04-23T16:01:34.602Z,16.23
2023-04-23T16:06:33.616Z,16.20
2023-04-23T16:09:02.272Z,16.17
2023-04-23T16:11:30.769Z,15.97
2023-04-23T16:13:58.738Z,15.81
2023-04-23T16:16:28.549Z,15.57
2023-04-23T16:18:57.701Z,15.50
2023-04-23T16:21:27.933Z,14.69
2023-04-23T16:23:56.251Z,14.20
2023-04-23T16:26:24.286Z,13.85
2023-04-23T16:29:05.545Z,14.09
2023-04-23T16:31:41.164Z,14.04
2023-04-23T16:34:09.217Z,13.95
2023-04-23T16:36:38.067Z,13.96
2023-04-23T16:39:11.508Z,13.98
2023-04-23T16:41:39.685Z,14.00
2023-04-23T16:44:07.825Z,14.11
2023-04-23T16:46:35.896Z,14.15
2023-04-23T16:49:05.812Z,14.22
2023-04-23T16:51:33.697Z,14.23
2023-04-23T16:54:02.319Z,14.07
2023-04-23T16:56:30.184Z,14.02
2023-04-23T16:58:58.363Z,13.94
2023-04-23T17:01:26.761Z,13.80
2023-04-23T17:03:54.839Z,13.75
2023-04-23T17:06:29.475Z,13.67
2023-04-23T17:08:58.777Z,13.75
2023-04-23T17:11:27.078Z,13.59
2023-04-23T17:13:55.829Z,13.68
2023-04-23T17:16:25.377Z,13.68
2023-04-23T17:18:53.616Z,13.67
2023-04-23T17:21:22.172Z,13.66
2023-04-23T17:23:51.966Z,13.62
2023-04-23T17:26:20.812Z,13.70
2023-04-23T17:28:48.749Z,13.65
2023-04-23T17:31:18.548Z,13.76
2023-04-23T17:33:49.136Z,13.72
2023-04-23T17:36:17.873Z,13.70
2023-04-23T17:38:45.915Z,13.70
2023-04-23T17:41:16.736Z,13.74
2023-04-23T17:43:44.661Z,13.82
2023-04-23T17:46:12.874Z,13.78
2023-04-23T17:48:40.998Z,13.63
2023-04-23T17:51:08.939Z,13.64
2023-04-23T17:53:37.700Z,13.52
2023-04-23T17:56:05.558Z,13.45
2023-04-23T17:58:36.150Z,13.46
2023-04-23T18:01:06.037Z,13.45
2023-04-23T18:03:34.105Z,13.44
2023-04-23T18:06:02.232Z,13.44
2023-04-23T18:08:30.734Z,13.44
2023-04-23T18:10:58.801Z,13.51
2023-04-23T18:13:26.744Z,13.39
2023-04-23T18:15:56.172Z,13.45
2023-04-23T18:18:24.420Z,13.61
2023-04-23T18:20:52.606Z,13.49
2023-04-23T18:23:21.970Z,13.42
2023-04-23T18:25:50.000Z,13.40
2023-04-23T18:28:17.988Z,13.36
2023-04-23T18:30:45.830Z,13.41
2023-04-23T18:33:31.639Z,13.43
2023-04-23T18:36:04.044Z,13.41
2023-04-23T18:38:37.446Z,13.34
2023-04-23T18:41:05.484Z,13.35
2023-04-23T18:43:34.349Z,13.35
2023-04-23T18:46:02.823Z,13.38
2023-04-23T18:48:47.445Z,13.35
2023-04-23T18:51:21.258Z,13.35
2023-04-23T18:53:49.911Z,13.33
2023-04-23T18:56:18.001Z,13.31
2023-04-23T18:58:46.137Z,13.33
2023-04-23T19:01:14.628Z,13.29
2023-04-23T19:03:44.154Z,13.31
2023-04-23T19:06:12.125Z,13.21
2023-04-23T19:08:41.911Z,13.14
2023-04-23T19:11:10.604Z,13.08
2023-04-23T19:13:38.560Z,13.06
2023-04-23T19:16:06.699Z,13.06
2023-04-23T19:18:34.724Z,13.21
2023-04-23T19:21:04.910Z,13.15
2023-04-23T19:23:32.933Z,13.22
2023-04-23T19:26:01.724Z,13.15
2023-04-23T19:28:29.640Z,13.21
2023-04-23T19:30:58.353Z,13.17
2023-04-23T19:33:26.330Z,13.02
2023-04-23T19:35:54.199Z,13.09
2023-04-23T19:38:23.538Z,13.00
2023-04-23T19:40:51.708Z,13.05
2023-04-23T19:43:19.964Z,13.02
2023-04-23T19:45:48.025Z,12.98
2023-04-23T19:48:16.035Z,12.94
2023-04-23T19:50:44.493Z,13.01
2023-04-23T19:53:12.456Z,12.96
2023-04-23T19:55:42.200Z,13.03
2023-04-23T19:58:10.272Z,12.98
2023-04-23T20:00:41.370Z,12.98
2023-04-23T20:03:10.169Z,12.97
2023-04-23T20:05:38.487Z,12.97
2023-04-23T20:08:14.487Z,12.95
2023-04-23T20:10:44.303Z,12.92
2023-04-23T20:13:12.239Z,12.83
2023-04-23T20:15:40.352Z,12.82
2023-04-23T20:18:08.590Z,12.79
2023-04-23T20:20:37.496Z,12.83
2023-04-23T20:23:05.488Z,12.78
2023-04-23T20:25:36.564Z,12.74
2023-04-23T20:28:06.486Z,12.72
2023-04-23T20:30:34.722Z,12.69
2023-04-23T20:33:03.298Z,12.68
2023-04-23T20:35:31.773Z,12.65
2023-04-23T20:38:00.834Z,12.63
2023-04-23T20:40:29.102Z,12.64
2023-04-23T20:42:58.575Z,12.61
2023-04-23T20:45:28.029Z,12.59
2023-04-23T20:47:57.591Z,12.53
2023-04-23T20:50:25.854Z,12.61
2023-04-23T20:52:54.033Z,12.51
2023-04-23T20:55:22.159Z,12.50
2023-04-23T20:57:50.055Z,12.49
2023-04-23T21:00:20.260Z,12.46
2023-04-23T21:02:49.622Z,12.42
2023-04-23T21:05:17.623Z,12.40
2023-04-23T21:07:45.632Z,12.39
2023-04-23T21:10:13.502Z,12.35
2023-04-23T21:12:43.331Z,12.36
2023-04-23T21:15:13.234Z,12.30
2023-04-23T21:17:41.702Z,12.35
2023-04-23T21:20:11.565Z,12.30
2023-04-23T21:22:39.561Z,12.36
2023-04-23T21:25:08.104Z,12.45
2023-04-23T21:27:36.090Z,12.36
2023-04-23T21:30:09.628Z,12.25
2023-04-23T21:32:37.580Z,12.19
2023-04-23T21:35:06.045Z,12.19
2023-04-23T21:37:37.298Z,12.09
2023-04-23T21:40:06.360Z,12.13
2023-04-23T21:42:34.274Z,12.03
2023-04-23T21:45:02.225Z,12.07
2023-04-23T21:47:30.218Z,12.01
2023-04-23T21:49:58.584Z,12.02
2023-04-23T21:52:26.470Z,11.88
2023-04-23T21:54:55.734Z,12.01
2023-04-23T21:57:23.788Z,11.90
2023-04-23T21:59:51.811Z,11.92
2023-04-23T22:02:19.778Z,11.83
2023-04-23T22:04:47.867Z,11.85
2023-04-23T22:07:15.654Z,11.81
2023-04-23T22:09:43.796Z,11.74
2023-04-23T22:12:13.309Z,11.69
2023-04-23T22:14:41.632Z,11.68
2023-04-23T22:17:09.625Z,11.73
2023-04-23T22:19:37.952Z,11.70
2023-04-23T22:22:06.435Z,11.70
2023-04-23T22:24:34.387Z,11.65
2023-04-23T22:27:02.331Z,11.65
2023-04-23T22:29:31.598Z,11.64
2023-04-23T22:31:59.518Z,11.62
2023-04-23T22:34:27.530Z,11.63
2023-04-23T22:36:55.465Z,11.63
2023-04-23T22:39:23.473Z,11.69
2023-04-23T22:41:51.273Z,11.66
2023-04-23T22:44:19.119Z,11.62
2023-04-23T22:46:48.482Z,11.57
2023-04-23T22:49:18.220Z,11.49
2023-04-23T22:51:46.170Z,11.49
2023-04-23T22:54:14.044Z,11.50
2023-04-23T22:56:42.024Z,11.47
2023-04-23T22:59:11.880Z,11.54
2023-04-23T23:01:40.073Z,11.47
2023-04-23T23:04:09.294Z,11.50
2023-04-23T23:06:37.176Z,11.51
2023-04-23T23:09:05.151Z,11.49
2023-04-23T23:11:33.058Z,11.49
2023-04-23T23:14:00.947Z,11.55
2023-04-23T23:16:30.428Z,11.52
2023-04-23T23:18:58.353Z,11.50
2023-04-23T23:21:27.709Z,11.50
2023-04-23T23:23:55.581Z,11.53
2023-04-23T23:26:23.396Z,11.51
2023-04-23T23:28:52.465Z,11.50
2023-04-23T23:31:21.834Z,11.52
2023-04-23T23:33:49.724Z,11.50
2023-04-23T23:36:17.723Z,11.46
2023-04-23T23:38:47.030Z,11.47
2023-04-23T23:41:14.864Z,11.40
2023-04-23T23:43:42.717Z,11.45
2023-04-23T23:46:10.585Z,11.44
2023-04-23T23:48:38.838Z,11.50
2023-04-23T23:51:06.902Z,11.46
2023-04-23T23:53:34.764Z,11.47
2023-04-23T23:56:04.131Z,11.43
2023-04-23T23:58:32.065Z,11.42
